Daytona Beach, FL

1:41 AM EST on November 26, 2014 (GMT -0500)
ERAU Daytona Beach | Change Station
CLOSE
Current Station
Personal Weather Station
Location: Daytona Beach, FL
Elevation: 26 ft
Nearby Weather Stations

Elev 26 ft 29.18 °N, 81.05 °W | Updated 9 seconds ago

Light Rain
Light Rain
70.2 °F
Feels Like 70.2 °F
N
9.0
Wind Variable Wind from North
Gusts 13.0 mph

Today
High -- | Low -- °F
--% Chance of Precip.
Yesterday
High -- | Low -- °F
Precip. -- in
6:56 AM 5:26 PM
Waxing Crescent, 17% visible
Pressure 29.84 in
Visibility 10.0 miles
Clouds Scattered Clouds 2400 ft
Overcast 6500 ft
Dew Point 70 °F
Humidity 99%
Rainfall 0.15 in
Snow Depth Not available.
UV 0.0 out of 12
Pollen .50 out of 12
Air Quality Not available.
Flu Activity Not available.
SPECI KDAB 260631Z 16009KT 10SM -RA SCT024 OVC065 22/21 A2984 RMK AO2 RAE02B23 P0000 T02170206

More Conditions Fewer Conditions

Pressure 29.84 in
Visibility 10.0 miles
Clouds Scattered Clouds 2400 ft
Overcast 6500 ft
Dew Point 70 °F
Humidity 99%
Rainfall 0.15 in
Snow Depth Not available.
UV 0.0 out of 12
Pollen .50 out of 12
Air Quality Not available.
Flu Activity Not available.
SPECI KDAB 260631Z 16009KT 10SM -RA SCT024 OVC065 22/21 A2984 RMK AO2 RAE02B23 P0000 T02170206

More Conditions Fewer Conditions

Nowcast | as of 12:02 am EST on November 26, 2014

more more band of heavy rain to push through Osceola and Brevard counties... At 12 midnight...Doppler radar showed one final band of moderate to heavy rain producing additional amounts of one half to one inch over Osceola County from Lake Kissimmee to Holopaw and Nova Road...and covering northern Brevard and southeastern Volusia counties from Canaveral Groves to Oak Hill and New Smyrna Beach. Through 300 am... this activity will sweep through Osceola and Brevard counties...with the activity reaching Indian River and Okeechobee counties around 2:00 am...and eventually Saint Lucie and Martin counties toward 3:00 am. Occasional lightning strikes and wind gusts to 30 or 35 mph may accompany a few of the stronger embedded cells. Additional ponding of water and aggravation of standing water conditions is likely in the affected counties...where a Flood Warning remains in effect through 12:45 am. Additional details...including graphics are available online at: http://www.Srh.NOAA.Gov/mlb/blog.Php

×

10-Day Weather Forecast

Almanac

Astronomy

Nov. 26, 2014 Rise Set
Actual Time
Civil Twilight
Nautical Twilight
Astronomical Twilight
Moon
Length of Visible Light
Length of Day
Tomorrow will be .
, % of the Moon is Illuminated

Today's Extremes

State Highs State Lows

Community

WunderPhotos

Upload Photos

1,773,691 photos uploaded!

WunderBlogs® & News

Nearby

Air Quality

  Air Quality AQ Index Pollutant
Not available.

Snow Depth

Station Depth Elevation

Earthquake Activity

City Distance Mag. Time & Date
Minimum magnitude displayed is 2.5.

Coastal Water Temperatures

Place Temperature

Nearby Weather Stations